Time;durP1;ratioP1;P1;durP2;ratioP2;P2;SDS_P1;SDS_P2;PMS_P1;PMS_P2;Temp;Humidity;BMP_temperature;BMP_pressure;BME280_temperature;BME280_humidity;BME280_pressure;Samples;Min_cycle;Max_cycle;Signal;HPM_P1;HPM_P2
2022/05/02 00:00:13;;;;;;;8.88;7.07;;;5.30;99.90;;;;;;5029404;28;20528;-73
2022/05/02 00:02:39;;;;;;;7.20;6.55;;;5.30;99.90;;;;;;5010259;28;20045;-73
2022/05/02 00:05:06;;;;;;;7.57;6.78;;;5.30;99.90;;;;;;5017692;28;20053;-73
2022/05/02 00:07:32;;;;;;;8.07;7.20;;;5.20;99.90;;;;;;5021087;28;20077;-73
2022/05/02 00:09:57;;;;;;;7.93;6.65;;;5.20;99.90;;;;;;5021457;28;20508;-73
2022/05/02 00:12:23;;;;;;;7.38;6.57;;;5.20;99.90;;;;;;5028392;28;20072;-73
2022/05/02 00:14:49;;;;;;;8.98;7.22;;;5.20;99.90;;;;;;5030002;28;20124;-73
2022/05/02 00:17:16;;;;;;;8.68;7.78;;;5.20;99.90;;;;;;5009393;28;20180;-73
2022/05/02 00:19:41;;;;;;;10.20;8.40;;;5.10;99.90;;;;;;5010228;28;20084;-73
2022/05/02 00:22:07;;;;;;;8.52;7.63;;;5.10;99.90;;;;;;5009634;28;20484;-73
2022/05/02 00:24:33;;;;;;;11.57;8.55;;;5.10;99.90;;;;;;5011904;28;20184;-73
2022/05/02 00:26:58;;;;;;;8.88;8.02;;;5.20;99.90;;;;;;5015031;28;20057;-73
2022/05/02 00:29:24;;;;;;;10.20;9.20;;;5.00;99.90;;;;;;5009646;28;20053;-73
2022/05/02 00:31:50;;;;;;;9.07;8.18;;;4.90;99.90;;;;;;5023602;28;20491;-73
2022/05/02 00:34:16;;;;;;;10.95;9.45;;;5.00;99.90;;;;;;5029707;28;20071;-73
2022/05/02 00:36:42;;;;;;;11.57;9.98;;;4.90;99.90;;;;;;5027527;28;20120;-73
2022/05/02 00:39:08;;;;;;;10.68;9.57;;;4.80;99.90;;;;;;5029202;28;20056;-73
2022/05/02 00:41:33;;;;;;;11.45;9.27;;;4.80;99.90;;;;;;5028795;28;20049;-73
2022/05/02 00:43:59;;;;;;;10.63;9.00;;;4.80;99.90;;;;;;5027612;28;20458;-73
2022/05/02 00:46:26;;;;;;;10.65;9.65;;;4.80;99.90;;;;;;5028056;28;20410;-73
2022/05/02 00:48:53;;;;;;;17.35;10.68;;;4.70;99.90;;;;;;5029191;28;20450;-73
2022/05/02 00:51:19;;;;;;;12.05;10.05;;;4.60;99.90;;;;;;5029637;28;20045;-73
2022/05/02 00:53:49;;;;;;;10.77;9.60;;;4.60;99.90;;;;;;5029018;28;20037;-73
2022/05/02 00:56:20;;;;;;;10.05;9.05;;;4.60;99.90;;;;;;5028482;28;20095;-73
2022/05/02 00:58:48;;;;;;;10.35;9.35;;;4.70;99.90;;;;;;5029004;28;20041;-73
2022/05/02 01:01:13;;;;;;;11.63;9.32;;;4.60;99.90;;;;;;5026284;28;20064;-73
2022/05/02 01:03:39;;;;;;;9.27;8.38;;;4.50;99.90;;;;;;5009297;28;20046;-73
2022/05/02 01:08:52;;;;;;;8.20;7.38;;;4.50;99.90;;;;;;5025442;28;20053;-73
2022/05/02 01:11:17;;;;;;;8.40;7.47;;;4.50;99.90;;;;;;5028111;28;20034;-73
2022/05/02 01:13:46;;;;;;;8.13;7.03;;;4.50;99.90;;;;;;5028933;28;20494;-73
2022/05/02 01:16:16;;;;;;;8.38;7.32;;;4.50;99.90;;;;;;5028425;28;20080;-73
2022/05/02 01:18:43;;;;;;;8.02;7.22;;;4.50;99.90;;;;;;5026602;28;20045;-73
2022/05/02 01:21:11;;;;;;;9.70;8.15;;;4.50;99.90;;;;;;5017897;28;20049;-73
2022/05/02 01:23:37;;;;;;;9.00;7.68;;;4.50;99.90;;;;;;5018739;28;20125;-73
2022/05/02 01:26:03;;;;;;;12.02;9.60;;;4.40;99.90;;;;;;5009211;28;20763;-73
2022/05/02 01:28:28;;;;;;;16.88;10.43;;;4.40;99.90;;;;;;5008542;28;20069;-73
2022/05/02 01:30:55;;;;;;;10.80;9.13;;;4.30;99.90;;;;;;5009722;28;20045;-73
2022/05/02 01:33:21;;;;;;;11.20;9.15;;;4.30;99.90;;;;;;5008668;28;20049;-73
2022/05/02 01:35:46;;;;;;;10.43;9.38;;;4.30;99.90;;;;;;5030778;28;20034;-73
2022/05/02 01:38:13;;;;;;;12.48;10.90;;;4.30;99.90;;;;;;5028756;28;20548;-73
2022/05/02 01:40:38;;;;;;;11.45;10.25;;;4.30;99.90;;;;;;5025766;28;20083;-73
2022/05/02 01:43:04;;;;;;;12.55;11.27;;;4.20;99.90;;;;;;5030560;28;20080;-73
2022/05/02 01:45:30;;;;;;;15.35;12.00;;;4.20;99.90;;;;;;5031438;28;20413;-73
2022/05/02 01:47:55;;;;;;;12.55;10.75;;;4.10;99.90;;;;;;5031613;28;20050;-73
2022/05/02 01:50:21;;;;;;;10.38;9.38;;;4.10;99.90;;;;;;5028787;28;20048;-73
2022/05/02 01:52:46;;;;;;;12.07;10.88;;;4.10;99.90;;;;;;5014990;28;20051;-73
2022/05/02 01:55:12;;;;;;;11.68;10.15;;;4.00;99.90;;;;;;5031270;28;20064;-73
2022/05/02 01:57:37;;;;;;;11.60;10.40;;;3.90;99.90;;;;;;5030224;28;20124;-73
2022/05/02 02:00:03;;;;;;;12.70;11.13;;;3.90;99.90;;;;;;5031112;28;20049;-73
2022/05/02 02:02:29;;;;;;;10.48;9.38;;;3.80;99.90;;;;;;5025927;28;20037;-73
2022/05/02 02:07:39;;;;;;;12.15;10.38;;;3.90;99.90;;;;;;5022616;28;20136;-73
2022/05/02 02:10:05;;;;;;;11.57;10.38;;;3.90;99.90;;;;;;5032021;28;20125;-73
2022/05/02 02:12:30;;;;;;;11.68;10.48;;;3.90;99.90;;;;;;5028825;28;20046;-73
2022/05/02 02:14:56;;;;;;;10.77;9.60;;;3.90;99.90;;;;;;5030823;28;20037;-73
2022/05/02 02:17:21;;;;;;;12.27;9.57;;;3.80;99.90;;;;;;5030675;28;20406;-73
2022/05/02 02:19:47;;;;;;;12.15;9.10;;;3.80;99.90;;;;;;5044633;28;20042;-73
2022/05/02 02:22:18;;;;;;;9.52;8.35;;;3.80;99.90;;;;;;5046062;28;20042;-73
2022/05/02 02:24:46;;;;;;;11.20;9.38;;;3.70;99.90;;;;;;5029037;28;20049;-73
2022/05/02 02:27:12;;;;;;;10.60;8.98;;;3.80;99.90;;;;;;5041553;28;20033;-73
2022/05/02 02:29:37;;;;;;;10.20;9.15;;;3.70;99.90;;;;;;5032288;28;20042;-73
2022/05/02 02:32:04;;;;;;;10.10;9.10;;;3.70;99.90;;;;;;5017831;28;20041;-73
2022/05/02 02:34:29;;;;;;;9.23;8.32;;;3.70;99.90;;;;;;5031463;28;20037;-73
2022/05/02 02:36:55;;;;;;;11.20;8.27;;;3.60;99.90;;;;;;5030606;28;20044;-73
2022/05/02 02:39:20;;;;;;;9.48;8.48;;;3.60;99.90;;;;;;5014299;28;20078;-73
2022/05/02 02:41:46;;;;;;;10.48;8.50;;;3.60;99.90;;;;;;5017295;28;20120;-73
2022/05/02 02:44:11;;;;;;;14.65;9.43;;;3.60;99.90;;;;;;5030468;28;20053;-73
2022/05/02 02:46:37;;;;;;;10.35;9.32;;;3.50;99.90;;;;;;5031414;28;20107;-73
2022/05/02 02:49:02;;;;;;;10.45;9.35;;;3.40;99.90;;;;;;5029758;28;20033;-73
2022/05/02 02:51:28;;;;;;;11.13;9.98;;;3.30;99.90;;;;;;5031273;28;20530;-73
2022/05/02 02:53:54;;;;;;;13.45;10.00;;;3.20;99.90;;;;;;5030477;28;20077;-73
2022/05/02 02:56:19;;;;;;;12.18;9.80;;;3.20;99.90;;;;;;5031147;28;20107;-73
2022/05/02 02:58:45;;;;;;;10.30;9.13;;;3.10;99.90;;;;;;5014832;28;20075;-73
2022/05/02 03:01:10;;;;;;;10.18;8.18;;;3.10;99.90;;;;;;5023610;28;20049;-73
2022/05/02 03:03:36;;;;;;;9.88;7.97;;;3.00;99.90;;;;;;5022300;28;20466;-73
2022/05/02 03:06:02;;;;;;;9.05;8.13;;;3.00;99.90;;;;;;5032348;28;20379;-74
2022/05/02 03:08:28;;;;;;;9.40;8.48;;;2.80;99.90;;;;;;4998044;28;20062;-73
2022/05/02 03:10:55;;;;;;;11.90;9.30;;;2.90;99.90;;;;;;5029719;28;20077;-73
2022/05/02 03:13:21;;;;;;;11.18;8.40;;;2.90;99.90;;;;;;5022458;28;20029;-73
2022/05/02 03:15:47;;;;;;;10.68;9.68;;;2.80;99.90;;;;;;5031188;28;20130;-73
2022/05/02 03:18:13;;;;;;;10.73;9.63;;;2.80;99.90;;;;;;5030270;28;20093;-73
2022/05/02 03:20:38;;;;;;;11.55;10.35;;;2.80;99.90;;;;;;5029784;28;20095;-73
2022/05/02 03:23:04;;;;;;;11.32;10.10;;;2.80;99.90;;;;;;5012349;28;20454;-73
2022/05/02 03:25:30;;;;;;;10.70;8.82;;;2.70;99.90;;;;;;5029617;28;20049;-73
2022/05/02 03:27:55;;;;;;;9.15;8.15;;;2.70;99.90;;;;;;5043674;28;20041;-73
2022/05/02 03:30:22;;;;;;;9.23;7.85;;;2.70;99.90;;;;;;5029419;28;20562;-73
2022/05/02 03:32:47;;;;;;;9.23;7.75;;;2.70;99.90;;;;;;5028510;28;20128;-73
2022/05/02 03:35:13;;;;;;;10.13;8.40;;;2.70;99.90;;;;;;5016060;28;20416;-73
2022/05/02 03:37:39;;;;;;;12.02;9.73;;;2.70;99.90;;;;;;5016189;28;20598;-73
2022/05/02 03:40:06;;;;;;;13.60;12.02;;;2.70;99.90;;;;;;5016660;28;20058;-73
2022/05/02 03:42:32;;;;;;;13.02;11.73;;;2.70;99.90;;;;;;5016854;28;20080;-73
2022/05/02 03:44:58;;;;;;;13.98;12.48;;;2.70;99.90;;;;;;5029289;28;20037;-73
2022/05/02 03:47:23;;;;;;;14.15;12.60;;;2.70;99.90;;;;;;5028089;28;20072;-73
2022/05/02 03:49:49;;;;;;;14.75;13.25;;;2.70;99.90;;;;;;5009067;28;20069;-73
2022/05/02 03:52:14;;;;;;;14.90;11.88;;;2.70;99.90;;;;;;5025695;28;20120;-73
2022/05/02 03:54:40;;;;;;;14.55;12.32;;;2.80;99.90;;;;;;5029392;28;20041;-73
2022/05/02 03:57:06;;;;;;;13.25;11.93;;;2.80;99.90;;;;;;5026606;28;20041;-73
2022/05/02 03:59:32;;;;;;;13.60;12.13;;;2.80;99.90;;;;;;5027807;28;20037;-73
2022/05/02 04:01:57;;;;;;;13.32;11.93;;;2.90;99.90;;;;;;5014928;28;20459;-73
2022/05/02 04:04:23;;;;;;;13.07;11.75;;;2.90;99.90;;;;;;5009865;28;20484;-73
2022/05/02 04:06:48;;;;;;;13.43;11.88;;;2.90;99.90;;;;;;5024968;28;20057;-73
2022/05/02 04:09:14;;;;;;;14.25;12.52;;;3.00;99.90;;;;;;5021883;28;20136;-73
2022/05/02 04:11:40;;;;;;;13.23;11.90;;;3.00;99.90;;;;;;5012506;28;20041;-73
2022/05/02 04:14:05;;;;;;;13.68;12.35;;;3.00;99.90;;;;;;5024944;28;20041;-74
2022/05/02 04:16:31;;;;;;;14.77;12.68;;;3.00;99.90;;;;;;5012475;28;20052;-73
2022/05/02 04:18:56;;;;;;;13.45;11.75;;;3.00;99.90;;;;;;5005446;28;20069;-73
2022/05/02 04:21:22;;;;;;;13.48;12.02;;;3.00;99.90;;;;;;5035898;28;20575;-73
2022/05/02 04:23:47;;;;;;;14.25;12.38;;;3.10;99.90;;;;;;5028864;28;20049;-73
2022/05/02 04:26:13;;;;;;;15.60;13.75;;;3.00;99.90;;;;;;5019939;28;20044;-73
2022/05/02 04:28:38;;;;;;;15.20;13.27;;;3.00;99.90;;;;;;5016686;28;20067;-73
2022/05/02 04:31:05;;;;;;;14.75;13.15;;;3.00;99.90;;;;;;5012120;28;20393;-73
2022/05/02 04:33:31;;;;;;;16.85;13.38;;;3.10;99.90;;;;;;5027286;28;20048;-73
2022/05/02 04:35:56;;;;;;;15.27;13.65;;;3.10;99.90;;;;;;5028224;28;20041;-74
2022/05/02 04:38:22;;;;;;;17.60;14.93;;;3.20;99.90;;;;;;5029220;28;20069;-73
2022/05/02 04:40:48;;;;;;;23.08;14.80;;;3.20;99.90;;;;;;5028664;28;20041;-73
2022/05/02 04:43:14;;;;;;;17.20;14.95;;;3.20;99.90;;;;;;5013076;28;20085;-73
2022/05/02 04:45:40;;;;;;;17.95;16.05;;;3.30;99.90;;;;;;5027427;28;20048;-73
2022/05/02 04:48:06;;;;;;;17.05;14.90;;;3.30;99.90;;;;;;5029084;28;20132;-74
2022/05/02 04:50:31;;;;;;;16.35;13.80;;;3.40;99.90;;;;;;5029347;28;20467;-73
2022/05/02 04:52:57;;;;;;;14.88;13.43;;;3.50;99.90;;;;;;5029108;28;20132;-73
2022/05/02 04:55:22;;;;;;;15.25;13.75;;;3.50;99.90;;;;;;5028648;28;20111;-73
2022/05/02 04:57:48;;;;;;;22.70;14.63;;;3.60;99.90;;;;;;5029147;28;20044;-73
2022/05/02 05:00:14;;;;;;;16.55;14.85;;;3.70;99.90;;;;;;5026818;28;20440;-73
2022/05/02 05:02:40;;;;;;;16.50;14.80;;;3.70;99.90;;;;;;5012349;28;20040;-73
2022/05/02 05:05:07;;;;;;;17.73;15.40;;;3.80;99.90;;;;;;5012859;28;20033;-73
2022/05/02 05:07:35;;;;;;;19.95;16.60;;;3.80;99.90;;;;;;5006090;28;20056;-73
2022/05/02 05:10:00;;;;;;;18.58;16.25;;;3.80;99.90;;;;;;5008377;28;20042;-74
2022/05/02 05:12:32;;;;;;;16.55;14.85;;;3.90;99.90;;;;;;5018050;28;20094;-73
2022/05/02 05:18:33;;;;;;;17.63;15.45;;;4.10;99.90;;;;;;5027279;28;20042;-73
2022/05/02 05:21:10;;;;;;;18.23;16.40;;;4.20;99.90;;;;;;5011552;28;20042;-74
2022/05/02 05:23:56;;;;;;;16.77;14.98;;;4.40;99.90;;;;;;5028043;28;20045;-73
2022/05/02 05:26:51;;;;;;;19.60;16.20;;;4.60;99.90;;;;;;5026515;28;20122;-73
2022/05/02 05:29:39;;;;;;;18.77;16.77;;;4.70;99.90;;;;;;5027455;28;20041;-74
2022/05/02 05:32:25;;;;;;;19.60;17.42;;;4.80;99.90;;;;;;5018352;28;20212;-74
2022/05/02 05:34:56;;;;;;;20.60;16.30;;;5.00;99.90;;;;;;5019005;28;20046;-74
2022/05/02 05:37:40;;;;;;;21.33;18.15;;;5.10;99.90;;;;;;5023065;28;20614;-73
2022/05/02 05:40:15;;;;;;;20.48;18.30;;;5.30;99.90;;;;;;5008106;28;20141;-74
2022/05/02 05:42:56;;;;;;;20.58;18.38;;;5.50;99.90;;;;;;5001431;28;20069;-74
2022/05/02 05:45:33;;;;;;;20.60;17.67;;;5.70;99.90;;;;;;5021561;28;20049;-74
2022/05/02 05:48:01;;;;;;;20.08;16.23;;;6.10;99.90;;;;;;5024377;28;20128;-73
2022/05/02 05:50:32;;;;;;;15.18;13.73;;;7.30;99.90;;;;;;5023779;28;20045;-73
2022/05/02 05:53:37;;;;;;;13.98;12.57;;;8.90;99.90;;;;;;5031213;28;20494;-73
2022/05/02 05:56:07;;;;;;;13.82;12.02;;;10.30;99.90;;;;;;5025479;28;20041;-74
2022/05/02 05:58:48;;;;;;;12.45;11.25;;;11.40;99.90;;;;;;5021788;28;20415;-74
2022/05/02 06:01:19;;;;;;;14.02;12.40;;;12.20;99.90;;;;;;5021241;28;20046;-74
2022/05/02 06:04:06;;;;;;;12.68;11.48;;;;;;;;;;5024182;28;20041;-74
2022/05/02 06:06:32;;;;;;;10.93;9.77;;;13.10;99.90;;;;;;5026271;28;20132;-74
2022/05/02 06:08:59;;;;;;;11.32;10.07;;;14.00;99.90;;;;;;5010201;28;20128;-74
2022/05/02 06:11:26;;;;;;;11.40;8.75;;;14.70;99.90;;;;;;5028408;28;20064;-74
2022/05/02 06:13:54;;;;;;;10.40;9.02;;;15.70;99.90;;;;;;5028199;28;20133;-74
2022/05/02 06:19:11;;;;;;;25.00;8.88;;;17.00;97.00;;;;;;5018373;28;20057;-74
2022/05/02 06:21:41;;;;;;;11.00;8.00;;;17.50;92.10;;;;;;5026900;23;20052;-75
2022/05/02 06:24:11;;;;;;;9.23;8.05;;;16.20;92.60;;;;;;5005151;28;20050;-75
2022/05/02 06:26:38;;;;;;;10.25;8.88;;;16.30;95.70;;;;;;5028374;28;20116;-75
2022/05/02 06:29:07;;;;;;;9.20;8.13;;;17.60;95.40;;;;;;5031730;28;20042;-75
2022/05/02 06:31:39;;;;;;;9.15;8.15;;;17.80;92.90;;;;;;5030397;28;20874;-75
2022/05/02 06:34:06;;;;;;;9.75;8.00;;;18.50;88.80;;;;;;5010202;28;20045;-75
2022/05/02 06:36:54;;;;;;;7.88;7.05;;;17.80;88.30;;;;;;5030841;28;20034;-75
2022/05/02 06:39:44;;;;;;;8.13;7.35;;;17.20;90.60;;;;;;5028232;28;20096;-75
2022/05/02 06:42:21;;;;;;;7.30;6.60;;;;;;;;;;5028925;28;20099;-74
2022/05/02 06:45:41;;;;;;;7.30;6.60;;;19.50;87.00;;;;;;5027813;28;20107;-75
2022/05/02 06:48:22;;;;;;;6.65;6.05;;;20.00;81.20;;;;;;4990231;28;20065;-75
2022/05/02 06:50:55;;;;;;;8.63;7.23;;;19.80;74.50;;;;;;5021793;28;20053;-75
2022/05/02 06:53:59;;;;;;;6.50;5.90;;;20.70;72.50;;;;;;5032509;28;20482;-75
2022/05/02 06:56:46;;;;;;;7.15;6.55;;;20.50;68.30;;;;;;4975025;28;20449;-75
2022/05/02 06:59:28;;;;;;;6.63;6.07;;;19.90;70.90;;;;;;5023244;28;20445;-75
2022/05/02 07:02:03;;;;;;;8.05;7.25;;;20.00;67.70;;;;;;5025724;28;20056;-75
2022/05/02 07:04:44;;;;;;;6.65;6.05;;;20.30;71.20;;;;;;5029491;28;20057;-74
2022/05/02 07:07:36;;;;;;;7.28;6.32;;;20.80;69.40;;;;;;5021040;28;21043;-74
2022/05/02 07:10:05;;;;;;;7.43;6.72;;;19.80;64.50;;;;;;5026976;28;20063;-74
2022/05/02 07:12:38;;;;;;;8.82;6.20;;;19.30;70.90;;;;;;5028822;28;20034;-74
2022/05/02 07:15:22;;;;;;;7.68;6.97;;;20.20;69.30;;;;;;5028732;28;20091;-74
2022/05/02 07:18:05;;;;;;;7.38;6.78;;;20.50;66.00;;;;;;5010496;28;20041;-75
2022/05/02 07:20:52;;;;;;;10.05;6.93;;;21.20;64.00;;;;;;5013353;28;20072;-75
2022/05/02 07:23:56;;;;;;;7.60;6.85;;;21.30;62.30;;;;;;5028743;28;20499;-75
2022/05/02 07:26:22;;;;;;;8.38;7.18;;;21.80;62.90;;;;;;5023510;28;20046;-74
2022/05/02 07:28:49;;;;;;;7.80;7.10;;;21.80;63.40;;;;;;5026182;28;20791;-74
2022/05/02 07:31:21;;;;;;;9.73;8.73;;;20.60;60.60;;;;;;5028559;28;20045;-74
2022/05/02 07:33:48;;;;;;;;;;;20.10;64.80;;;;;;5028665;28;20033;-74
2022/05/02 07:36:17;;;;;;;6.60;6.05;;;21.10;62.20;;;;;;5013967;28;20294;-75
2022/05/02 07:38:47;;;;;;;7.53;6.85;;;21.70;61.30;;;;;;5029677;28;20042;-74
2022/05/02 07:41:23;;;;;;;7.72;6.97;;;22.20;61.60;;;;;;5030210;28;20155;-74
2022/05/02 07:43:50;;;;;;;7.28;6.68;;;22.30;60.90;;;;;;5009679;28;20651;-74
2022/05/02 07:46:23;;;;;;;7.78;6.93;;;21.00;60.40;;;;;;5011818;28;20426;-74
2022/05/02 07:48:51;;;;;;;8.15;7.13;;;21.70;59.90;;;;;;5024571;28;20049;-74
2022/05/02 07:51:19;;;;;;;9.73;8.77;;;21.50;57.80;;;;;;5024087;28;20835;-74
2022/05/02 07:53:45;;;;;;;9.50;7.28;;;20.20;60.70;;;;;;5027540;28;20037;-74
2022/05/02 07:56:12;;;;;;;10.15;6.85;;;20.10;62.80;;;;;;5005667;28;20046;-74
2022/05/02 07:58:44;;;;;;;7.35;6.70;;;19.80;62.70;;;;;;5013030;28;20071;-75
2022/05/02 08:01:09;;;;;;;7.85;7.05;;;18.90;65.10;;;;;;5028722;28;20033;-74
2022/05/02 08:03:35;;;;;;;8.68;7.75;;;17.60;67.00;;;;;;5026842;28;20434;-74
2022/05/02 08:06:26;;;;;;;8.77;6.78;;;16.40;73.70;;;;;;5029639;28;20438;-74
2022/05/02 08:09:02;;;;;;;14.88;7.20;;;16.40;76.40;;;;;;5024808;28;20073;-74
2022/05/02 08:11:46;;;;;;;7.13;6.25;;;15.90;80.70;;;;;;5023938;28;20107;-74
2022/05/02 08:14:19;;;;;;;7.40;6.68;;;15.70;82.70;;;;;;5026747;28;20418;-74
2022/05/02 08:17:21;;;;;;;8.18;7.38;;;15.70;82.50;;;;;;5028071;28;20051;-74
2022/05/02 08:20:22;;;;;;;7.13;6.38;;;15.30;83.50;;;;;;5027449;28;20527;-73
2022/05/02 08:29:05;;;;;;;7.28;6.45;;;15.50;85.10;;;;;;5025249;28;20067;-74
2022/05/02 08:31:51;;;;;;;7.40;6.70;;;15.40;86.70;;;;;;5025836;28;20061;-74
2022/05/02 08:34:32;;;;;;;7.82;7.03;;;15.60;85.30;;;;;;5032050;28;20567;-74
2022/05/02 08:37:16;;;;;;;8.60;7.70;;;15.50;85.90;;;;;;5009870;28;20045;-74
2022/05/02 08:40:10;;;;;;;8.38;7.53;;;15.30;85.20;;;;;;5031251;28;20395;-74
2022/05/02 08:43:10;;;;;;;7.47;6.60;;;15.10;85.90;;;;;;5020055;28;20123;-74
2022/05/02 08:45:41;;;;;;;9.20;7.80;;;15.10;88.00;;;;;;5035761;28;20050;-74
2022/05/02 08:49:32;;;;;;;16.25;13.27;;;15.20;88.20;;;;;;5027544;28;20056;-74
2022/05/02 08:51:52;;;;;;;10.80;8.07;;;15.10;89.10;;;;;;5009346;28;20402;-74
2022/05/02 08:54:45;;;;;;;7.95;6.60;;;15.10;86.70;;;;;;5027511;28;20045;-74
2022/05/02 08:57:39;;;;;;;8.52;7.68;;;15.20;82.70;;;;;;5021023;28;20045;-74
2022/05/02 09:00:09;;;;;;;9.82;7.00;;;15.00;86.20;;;;;;5002704;28;20058;-74
2022/05/02 09:02:56;;;;;;;10.05;7.47;;;15.30;89.30;;;;;;5015537;28;20051;-73
2022/05/02 09:05:51;;;;;;;8.93;6.60;;;15.50;86.00;;;;;;5041113;28;20144;-74
2022/05/02 09:08:42;;;;;;;9.25;8.18;;;15.70;87.20;;;;;;5037786;28;20051;-74
2022/05/02 09:11:33;;;;;;;9.07;7.77;;;15.50;82.10;;;;;;5011774;28;20056;-74
2022/05/02 09:14:09;;;;;;;8.70;7.90;;;15.30;82.80;;;;;;5027635;28;20296;-74
2022/05/02 09:17:01;;;;;;;8.10;7.25;;;15.60;83.90;;;;;;5029049;28;20050;-74
2022/05/02 09:20:11;;;;;;;8.90;7.00;;;15.90;79.50;;;;;;5000881;28;20088;-74
2022/05/02 09:23:11;;;;;;;8.20;7.38;;;16.00;81.70;;;;;;5016544;28;20159;-74
2022/05/02 09:25:57;;;;;;;8.52;6.72;;;16.20;83.40;;;;;;5025088;28;20042;-74
2022/05/02 09:28:30;;;;;;;9.18;7.78;;;16.20;80.30;;;;;;5026223;28;20141;-74
2022/05/02 09:31:20;;;;;;;11.82;7.28;;;15.90;77.60;;;;;;5027714;28;20144;-74
2022/05/02 09:34:16;;;;;;;8.05;7.22;;;15.90;78.40;;;;;;5025924;28;20457;-74
2022/05/02 09:37:07;;;;;;;7.97;7.18;;;16.10;78.10;;;;;;5011560;28;20426;-74
2022/05/02 09:39:47;;;;;;;7.95;7.07;;;16.30;76.00;;;;;;5026550;28;20050;-74
2022/05/02 09:42:27;;;;;;;10.38;7.22;;;15.80;74.20;;;;;;5028309;28;20095;-74
2022/05/02 09:51:50;;;;;;;8.90;7.50;;;16.20;76.60;;;;;;5023247;28;20824;-74
2022/05/02 09:57:32;;;;;;;8.65;7.50;;;16.20;73.00;;;;;;5031976;28;20125;-74
2022/05/02 10:02:49;;;;;;;9.18;7.32;;;16.10;74.20;;;;;;5032049;28;20053;-74
2022/05/02 10:05:21;;;;;;;8.60;6.88;;;16.30;76.80;;;;;;5028505;28;20068;-74
2022/05/02 10:08:09;;;;;;;7.30;6.60;;;16.40;72.40;;;;;;5029767;28;20067;-74
2022/05/02 10:10:42;;;;;;;7.90;6.43;;;15.70;69.80;;;;;;5025726;28;20503;-74
2022/05/02 10:13:18;;;;;;;7.63;6.75;;;15.70;71.50;;;;;;5031664;28;20042;-74
2022/05/02 10:16:04;;;;;;;7.60;6.60;;;15.90;69.70;;;;;;5031589;28;20037;-74
2022/05/02 10:18:50;;;;;;;8.27;7.32;;;15.80;70.00;;;;;;5031969;28;20056;-74
2022/05/02 10:21:41;;;;;;;7.25;6.55;;;15.70;72.00;;;;;;5015245;28;20132;-74
2022/05/02 10:24:31;;;;;;;10.30;7.18;;;16.10;76.90;;;;;;5039999;28;20057;-74
2022/05/02 10:27:18;;;;;;;7.18;6.32;;;16.10;72.00;;;;;;5031857;28;20045;-74
2022/05/02 10:30:10;;;;;;;7.50;6.25;;;16.30;73.80;;;;;;5030874;28;20442;-74
2022/05/02 10:32:46;;;;;;;8.20;6.38;;;16.30;71.00;;;;;;5003390;28;20052;-74
2022/05/02 10:35:17;;;;;;;7.47;6.13;;;16.40;74.30;;;;;;5031204;28;20072;-74
2022/05/02 10:38:00;;;;;;;6.43;5.82;;;16.40;69.80;;;;;;5025510;28;20069;-74
2022/05/02 10:40:37;;;;;;;6.40;5.82;;;16.40;73.80;;;;;;5033427;28;20121;-74
2022/05/02 10:43:06;;;;;;;7.10;6.40;;;16.60;76.10;;;;;;5036857;28;20037;-73
2022/05/02 10:45:35;;;;;;;5.88;5.32;;;16.50;76.50;;;;;;5031224;28;20059;-73
2022/05/02 10:48:15;;;;;;;7.35;6.00;;;16.60;76.80;;;;;;5011020;28;20072;-74
2022/05/02 10:50:53;;;;;;;12.35;6.65;;;16.80;75.20;;;;;;5020087;28;20050;-74
2022/05/02 10:53:36;;;;;;;7.35;5.82;;;17.00;74.40;;;;;;5023772;28;20179;-73
2022/05/02 10:56:33;;;;;;;6.88;6.03;;;17.20;71.40;;;;;;5028980;28;20052;-74
2022/05/02 10:59:01;;;;;;;6.68;5.97;;;17.50;72.00;;;;;;5025839;28;20050;-74
2022/05/02 11:02:04;;;;;;;7.28;6.57;;;17.70;71.30;;;;;;5025824;28;20040;-74
2022/05/02 11:04:39;;;;;;;6.82;6.13;;;17.90;70.30;;;;;;5026690;28;20128;-74
2022/05/02 11:07:25;;;;;;;7.30;6.07;;;18.00;71.50;;;;;;5027801;28;20042;-74
2022/05/02 11:10:03;;;;;;;8.10;6.30;;;18.20;71.50;;;;;;5023177;28;20124;-74
2022/05/02 11:12:32;;;;;;;9.15;5.85;;;17.90;63.50;;;;;;5028682;28;20072;-74
2022/05/02 11:15:18;;;;;;;7.18;6.15;;;18.10;68.50;;;;;;5023358;28;20480;-74
2022/05/02 11:17:46;;;;;;;6.60;5.60;;;18.20;64.40;;;;;;5025934;28;20483;-74
2022/05/02 11:20:43;;;;;;;6.43;5.50;;;18.20;64.80;;;;;;5024547;28;20041;-74
2022/05/02 11:23:27;;;;;;;6.85;6.15;;;18.10;65.20;;;;;;5006306;28;20058;-74
2022/05/02 11:26:27;;;;;;;7.38;6.10;;;17.40;63.00;;;;;;5020109;28;20496;-73
2022/05/02 11:29:23;;;;;;;6.90;6.18;;;17.40;65.80;;;;;;5060058;28;20541;-74
2022/05/02 11:32:05;;;;;;;6.95;6.25;;;17.50;64.70;;;;;;5028011;28;20541;-74
2022/05/02 11:34:38;;;;;;;;;;;17.70;66.90;;;;;;5009795;28;20045;-74
2022/05/02 11:37:08;;;;;;;8.73;6.25;;;17.80;70.20;;;;;;5026779;28;20283;-73
2022/05/02 11:39:56;;;;;;;5.82;5.22;;;18.10;66.70;;;;;;5031347;28;20391;-73
2022/05/02 11:42:22;;;;;;;8.40;6.47;;;18.30;68.50;;;;;;5040882;28;20045;-73
2022/05/02 11:45:14;;;;;;;7.05;5.72;;;18.40;66.20;;;;;;5029789;28;20046;-73
2022/05/02 11:48:03;;;;;;;8.65;6.85;;;18.50;66.20;;;;;;5022477;28;20049;-73
2022/05/02 11:50:34;;;;;;;6.80;6.10;;;18.70;63.30;;;;;;5023063;28;20164;-74
2022/05/02 11:53:06;;;;;;;8.50;7.60;;;18.20;64.50;;;;;;5019572;28;20639;-73
2022/05/02 11:55:34;;;;;;;8.07;7.25;;;17.70;60.80;;;;;;5026913;28;20063;-74
2022/05/02 11:58:18;;;;;;;9.63;6.90;;;17.60;61.40;;;;;;5030007;28;20442;-74
2022/05/02 12:00:50;;;;;;;6.90;6.25;;;17.40;62.50;;;;;;5009370;28;20419;-73
2022/05/02 12:03:22;;;;;;;6.32;5.82;;;17.60;65.60;;;;;;5027901;28;20039;-74
2022/05/02 12:06:01;;;;;;;6.80;6.20;;;18.00;67.00;;;;;;5028161;28;20092;-74
2022/05/02 12:08:34;;;;;;;6.80;5.85;;;18.20;67.50;;;;;;5020594;28;20073;-74
2022/05/02 12:11:07;;;;;;;6.95;6.22;;;18.30;62.70;;;;;;5009424;28;20035;-74
2022/05/02 12:13:36;;;;;;;6.88;6.07;;;18.30;65.30;;;;;;5026268;28;20037;-74
2022/05/02 12:16:10;;;;;;;7.10;6.05;;;18.50;66.70;;;;;;5008404;28;20049;-74
2022/05/02 12:18:56;;;;;;;15.27;7.03;;;18.10;59.50;;;;;;5027927;28;20044;-74
2022/05/02 12:21:24;;;;;;;8.88;6.18;;;17.90;60.00;;;;;;5027639;28;20132;-74
2022/05/02 12:23:52;;;;;;;5.85;5.35;;;17.80;63.60;;;;;;5027914;28;20049;-74
2022/05/02 12:26:22;;;;;;;7.25;6.10;;;17.80;65.20;;;;;;5011254;28;20049;-74
2022/05/02 12:28:49;;;;;;;7.35;6.15;;;17.70;58.80;;;;;;5028727;28;20081;-74
2022/05/02 12:31:19;;;;;;;7.18;6.30;;;17.80;64.10;;;;;;5025202;28;20033;-74
2022/05/02 12:33:53;;;;;;;6.25;5.65;;;17.80;60.80;;;;;;5028976;28;20414;-74
2022/05/02 12:36:20;;;;;;;5.95;5.45;;;18.00;62.00;;;;;;5029226;28;20065;-74
2022/05/02 12:39:08;;;;;;;10.52;6.22;;;17.80;59.00;;;;;;5029287;28;20402;-74
2022/05/02 12:41:47;;;;;;;6.18;5.60;;;17.90;59.30;;;;;;5024625;28;20503;-74
2022/05/02 12:44:14;;;;;;;7.97;6.35;;;18.00;63.50;;;;;;5029299;28;20033;-74
2022/05/02 12:46:44;;;;;;;8.07;5.80;;;17.90;56.70;;;;;;5022933;28;20168;-74
2022/05/02 12:49:24;;;;;;;7.60;5.40;;;17.90;57.20;;;;;;5007401;28;20049;-74
2022/05/02 12:51:56;;;;;;;6.82;5.80;;;17.80;57.70;;;;;;5042770;28;20230;-74
2022/05/02 12:54:25;;;;;;;7.93;6.05;;;17.50;58.80;;;;;;5026623;28;20391;-74
2022/05/02 13:02:45;;;;;;;7.03;5.00;;;17.30;58.40;;;;;;5027889;28;20420;-74
2022/05/02 13:05:16;;;;;;;5.88;5.38;;;17.40;60.70;;;;;;5028602;28;20506;-74
2022/05/02 13:07:48;;;;;;;6.75;5.80;;;17.70;60.20;;;;;;5027235;28;20045;-74
2022/05/02 13:10:25;;;;;;;6.80;5.90;;;17.70;63.80;;;;;;5023189;28;20053;-74
2022/05/02 13:13:05;;;;;;;6.75;5.45;;;17.90;58.50;;;;;;5028596;28;20056;-74
2022/05/02 13:15:39;;;;;;;5.97;5.38;;;17.70;60.50;;;;;;5019332;28;21192;-73
2022/05/02 13:18:10;;;;;;;7.75;5.90;;;17.70;59.20;;;;;;5010892;28;20037;-74
2022/05/02 13:20:36;;;;;;;6.50;5.90;;;17.80;61.60;;;;;;5011749;28;20041;-75
2022/05/02 13:23:13;;;;;;;6.18;5.57;;;17.90;59.90;;;;;;5026982;28;20053;-74
2022/05/02 13:26:07;;;;;;;6.70;5.70;;;18.10;63.70;;;;;;5028967;28;20041;-74
2022/05/02 13:28:58;;;;;;;6.88;6.05;;;18.10;61.80;;;;;;5010940;28;20041;-75
2022/05/02 13:31:32;;;;;;;7.00;5.55;;;17.60;58.80;;;;;;5025370;28;20045;-74
2022/05/02 13:34:02;;;;;;;6.43;5.38;;;17.80;63.80;;;;;;5032533;28;20042;-74
2022/05/02 13:36:30;;;;;;;6.50;5.72;;;17.80;58.00;;;;;;5031776;28;20112;-74
2022/05/02 13:39:20;;;;;;;7.32;5.72;;;17.70;59.90;;;;;;5030243;28;20068;-74
2022/05/02 13:41:59;;;;;;;5.90;5.32;;;17.70;60.20;;;;;;5020955;28;20053;-74
2022/05/02 13:44:29;;;;;;;5.60;5.10;;;17.70;58.60;;;;;;5012173;28;20073;-74
2022/05/02 13:47:09;;;;;;;10.13;5.50;;;17.90;63.00;;;;;;5030220;28;20041;-74
2022/05/02 13:49:42;;;;;;;8.00;5.60;;;18.00;59.40;;;;;;5040457;28;20572;-74
2022/05/02 13:52:25;;;;;;;6.70;4.85;;;18.10;60.20;;;;;;5029748;28;20463;-74
2022/05/02 13:54:53;;;;;;;5.63;5.13;;;18.40;62.40;;;;;;5026545;28;20049;-74